sensor_id;sensor_type;location;lat;lon;timestamp;P1;durP1;ratioP1;P2;durP2;ratioP2
10805;SDS011;5455;53.224;6.000;2022-09-01T00:02:32;2.70;;;1.40;;
10805;SDS011;5455;53.224;6.000;2022-09-01T00:04:59;2.17;;;0.60;;
10805;SDS011;5455;53.224;6.000;2022-09-01T00:07:28;4.63;;;1.00;;
10805;SDS011;5455;53.224;6.000;2022-09-01T00:09:57;1.20;;;0.90;;
10805;SDS011;5455;53.224;6.000;2022-09-01T00:12:25;2.60;;;0.87;;
10805;SDS011;5455;53.224;6.000;2022-09-01T00:14:52;1.97;;;0.70;;
10805;SDS011;5455;53.224;6.000;2022-09-01T00:17:20;1.17;;;0.80;;
10805;SDS011;5455;53.224;6.000;2022-09-01T00:19:47;1.43;;;0.60;;
10805;SDS011;5455;53.224;6.000;2022-09-01T00:22:14;2.37;;;1.03;;
10805;SDS011;5455;53.224;6.000;2022-09-01T00:24:41;1.00;;;0.83;;
10805;SDS011;5455;53.224;6.000;2022-09-01T00:27:08;4.60;;;1.00;;
10805;SDS011;5455;53.224;6.000;2022-09-01T00:29:36;2.07;;;0.80;;
10805;SDS011;5455;53.224;6.000;2022-09-01T00:32:09;1.37;;;0.80;;
10805;SDS011;5455;53.224;6.000;2022-09-01T00:34:37;1.20;;;0.80;;
10805;SDS011;5455;53.224;6.000;2022-09-01T00:37:05;1.63;;;0.70;;
10805;SDS011;5455;53.224;6.000;2022-09-01T00:39:33;2.10;;;0.80;;
10805;SDS011;5455;53.224;6.000;2022-09-01T00:42:02;1.67;;;0.80;;
10805;SDS011;5455;53.224;6.000;2022-09-01T00:44:31;1.90;;;0.93;;
10805;SDS011;5455;53.224;6.000;2022-09-01T00:46:58;4.17;;;0.97;;
10805;SDS011;5455;53.224;6.000;2022-09-01T00:52:03;1.53;;;0.93;;
10805;SDS011;5455;53.224;6.000;2022-09-01T00:54:35;0.93;;;0.93;;
10805;SDS011;5455;53.224;6.000;2022-09-01T00:57:06;1.10;;;0.70;;
10805;SDS011;5455;53.224;6.000;2022-09-01T00:59:34;0.80;;;0.77;;
10805;SDS011;5455;53.224;6.000;2022-09-01T01:02:05;2.30;;;0.80;;
10805;SDS011;5455;53.224;6.000;2022-09-01T01:04:32;1.60;;;0.90;;
10805;SDS011;5455;53.224;6.000;2022-09-01T01:06:59;1.90;;;0.80;;
10805;SDS011;5455;53.224;6.000;2022-09-01T01:09:30;0.90;;;0.73;;
10805;SDS011;5455;53.224;6.000;2022-09-01T01:12:02;1.47;;;0.77;;
10805;SDS011;5455;53.224;6.000;2022-09-01T01:14:30;1.93;;;1.00;;
10805;SDS011;5455;53.224;6.000;2022-09-01T01:17:02;2.70;;;0.73;;
10805;SDS011;5455;53.224;6.000;2022-09-01T01:19:36;2.33;;;0.87;;
10805;SDS011;5455;53.224;6.000;2022-09-01T01:25:40;2.30;;;0.70;;
10805;SDS011;5455;53.224;6.000;2022-09-01T01:28:16;0.70;;;0.53;;
10805;SDS011;5455;53.224;6.000;2022-09-01T01:30:53;2.73;;;0.80;;
10805;SDS011;5455;53.224;6.000;2022-09-01T01:33:26;1.00;;;0.90;;
10805;SDS011;5455;53.224;6.000;2022-09-01T01:35:58;0.73;;;0.60;;
10805;SDS011;5455;53.224;6.000;2022-09-01T01:38:27;1.23;;;0.77;;
10805;SDS011;5455;53.224;6.000;2022-09-01T01:40:56;1.20;;;0.90;;
10805;SDS011;5455;53.224;6.000;2022-09-01T01:43:23;0.80;;;0.80;;
10805;SDS011;5455;53.224;6.000;2022-09-01T01:45:53;4.83;;;0.80;;
10805;SDS011;5455;53.224;6.000;2022-09-01T01:48:29;2.63;;;1.10;;
10805;SDS011;5455;53.224;6.000;2022-09-01T01:51:00;1.90;;;0.83;;
10805;SDS011;5455;53.224;6.000;2022-09-01T01:53:28;1.63;;;0.97;;
10805;SDS011;5455;53.224;6.000;2022-09-01T01:55:55;3.57;;;0.73;;
10805;SDS011;5455;53.224;6.000;2022-09-01T01:58:28;1.07;;;0.97;;
10805;SDS011;5455;53.224;6.000;2022-09-01T02:00:55;2.37;;;0.90;;
10805;SDS011;5455;53.224;6.000;2022-09-01T02:03:25;0.87;;;0.73;;
10805;SDS011;5455;53.224;6.000;2022-09-01T02:05:56;1.03;;;0.80;;
10805;SDS011;5455;53.224;6.000;2022-09-01T02:08:23;2.00;;;0.70;;
10805;SDS011;5455;53.224;6.000;2022-09-01T02:10:53;1.93;;;0.57;;
10805;SDS011;5455;53.224;6.000;2022-09-01T02:13:22;0.70;;;0.70;;
10805;SDS011;5455;53.224;6.000;2022-09-01T02:15:55;0.87;;;0.83;;
10805;SDS011;5455;53.224;6.000;2022-09-01T02:20:56;1.03;;;0.80;;
10805;SDS011;5455;53.224;6.000;2022-09-01T02:23:24;0.77;;;0.67;;
10805;SDS011;5455;53.224;6.000;2022-09-01T02:25:55;1.10;;;0.80;;
10805;SDS011;5455;53.224;6.000;2022-09-01T02:28:46;1.53;;;0.87;;
10805;SDS011;5455;53.224;6.000;2022-09-01T02:31:32;0.93;;;0.77;;
10805;SDS011;5455;53.224;6.000;2022-09-01T02:34:01;3.37;;;0.90;;
10805;SDS011;5455;53.224;6.000;2022-09-01T02:36:29;1.73;;;0.90;;
10805;SDS011;5455;53.224;6.000;2022-09-01T02:39:01;1.70;;;0.80;;
10805;SDS011;5455;53.224;6.000;2022-09-01T02:41:29;1.27;;;0.60;;
10805;SDS011;5455;53.224;6.000;2022-09-01T02:44:01;1.00;;;0.70;;
10805;SDS011;5455;53.224;6.000;2022-09-01T02:46:38;2.60;;;1.00;;
10805;SDS011;5455;53.224;6.000;2022-09-01T02:49:08;1.03;;;0.90;;
10805;SDS011;5455;53.224;6.000;2022-09-01T02:51:47;1.37;;;0.87;;
10805;SDS011;5455;53.224;6.000;2022-09-01T02:54:20;0.77;;;0.77;;
10805;SDS011;5455;53.224;6.000;2022-09-01T02:56:51;1.70;;;0.87;;
10805;SDS011;5455;53.224;6.000;2022-09-01T02:59:23;0.87;;;0.70;;
10805;SDS011;5455;53.224;6.000;2022-09-01T03:01:55;0.70;;;0.70;;
10805;SDS011;5455;53.224;6.000;2022-09-01T03:04:23;1.20;;;0.90;;
10805;SDS011;5455;53.224;6.000;2022-09-01T03:06:50;0.93;;;0.83;;
10805;SDS011;5455;53.224;6.000;2022-09-01T03:09:20;0.87;;;0.60;;
10805;SDS011;5455;53.224;6.000;2022-09-01T03:11:49;0.70;;;0.70;;
10805;SDS011;5455;53.224;6.000;2022-09-01T03:14:18;1.20;;;0.90;;
10805;SDS011;5455;53.224;6.000;2022-09-01T03:16:46;1.77;;;0.80;;
10805;SDS011;5455;53.224;6.000;2022-09-01T03:19:13;1.37;;;0.90;;
10805;SDS011;5455;53.224;6.000;2022-09-01T03:21:41;1.37;;;1.00;;
10805;SDS011;5455;53.224;6.000;2022-09-01T03:24:14;1.00;;;0.90;;
10805;SDS011;5455;53.224;6.000;2022-09-01T03:26:44;1.33;;;0.80;;
10805;SDS011;5455;53.224;6.000;2022-09-01T03:29:16;1.87;;;1.00;;
10805;SDS011;5455;53.224;6.000;2022-09-01T03:31:44;0.90;;;0.80;;
10805;SDS011;5455;53.224;6.000;2022-09-01T03:34:11;3.10;;;0.93;;
10805;SDS011;5455;53.224;6.000;2022-09-01T03:36:45;0.80;;;0.80;;
10805;SDS011;5455;53.224;6.000;2022-09-01T03:39:24;2.80;;;1.00;;
10805;SDS011;5455;53.224;6.000;2022-09-01T03:41:51;1.40;;;1.13;;
10805;SDS011;5455;53.224;6.000;2022-09-01T03:44:19;1.87;;;0.80;;
10805;SDS011;5455;53.224;6.000;2022-09-01T03:46:46;0.87;;;0.70;;
10805;SDS011;5455;53.224;6.000;2022-09-01T03:49:13;2.70;;;1.00;;
10805;SDS011;5455;53.224;6.000;2022-09-01T03:51:43;1.10;;;0.80;;
10805;SDS011;5455;53.224;6.000;2022-09-01T03:54:11;2.33;;;1.00;;
10805;SDS011;5455;53.224;6.000;2022-09-01T03:56:38;1.00;;;0.80;;
10805;SDS011;5455;53.224;6.000;2022-09-01T03:59:12;1.20;;;0.90;;
10805;SDS011;5455;53.224;6.000;2022-09-01T04:01:44;2.87;;;1.27;;
10805;SDS011;5455;53.224;6.000;2022-09-01T04:04:11;1.50;;;0.80;;
10805;SDS011;5455;53.224;6.000;2022-09-01T04:06:41;4.50;;;1.20;;
10805;SDS011;5455;53.224;6.000;2022-09-01T04:09:11;1.53;;;0.80;;
10805;SDS011;5455;53.224;6.000;2022-09-01T04:11:41;2.30;;;0.93;;
10805;SDS011;5455;53.224;6.000;2022-09-01T04:14:13;2.40;;;0.90;;
10805;SDS011;5455;53.224;6.000;2022-09-01T04:16:41;1.43;;;1.00;;
10805;SDS011;5455;53.224;6.000;2022-09-01T04:19:27;1.10;;;1.00;;
10805;SDS011;5455;53.224;6.000;2022-09-01T04:21:56;3.10;;;0.87;;
10805;SDS011;5455;53.224;6.000;2022-09-01T04:24:32;2.10;;;1.00;;
10805;SDS011;5455;53.224;6.000;2022-09-01T04:27:01;2.10;;;1.00;;
10805;SDS011;5455;53.224;6.000;2022-09-01T04:29:29;1.17;;;0.90;;
10805;SDS011;5455;53.224;6.000;2022-09-01T04:32:05;1.23;;;0.90;;
10805;SDS011;5455;53.224;6.000;2022-09-01T04:34:38;1.60;;;1.10;;
10805;SDS011;5455;53.224;6.000;2022-09-01T04:37:10;0.97;;;0.90;;
10805;SDS011;5455;53.224;6.000;2022-09-01T04:39:41;1.60;;;1.10;;
10805;SDS011;5455;53.224;6.000;2022-09-01T04:42:20;2.07;;;1.07;;
10805;SDS011;5455;53.224;6.000;2022-09-01T04:44:51;3.17;;;1.50;;
10805;SDS011;5455;53.224;6.000;2022-09-01T04:47:23;1.27;;;1.10;;
10805;SDS011;5455;53.224;6.000;2022-09-01T04:50:05;1.20;;;1.10;;
10805;SDS011;5455;53.224;6.000;2022-09-01T04:52:43;3.50;;;1.07;;
10805;SDS011;5455;53.224;6.000;2022-09-01T04:55:23;1.20;;;1.10;;
10805;SDS011;5455;53.224;6.000;2022-09-01T04:57:50;1.30;;;1.10;;
10805;SDS011;5455;53.224;6.000;2022-09-01T05:00:19;1.13;;;1.00;;
10805;SDS011;5455;53.224;6.000;2022-09-01T05:02:51;1.53;;;1.17;;
10805;SDS011;5455;53.224;6.000;2022-09-01T05:05:22;3.20;;;0.80;;
10805;SDS011;5455;53.224;6.000;2022-09-01T05:07:49;3.33;;;1.23;;
10805;SDS011;5455;53.224;6.000;2022-09-01T05:10:21;2.30;;;0.90;;
10805;SDS011;5455;53.224;6.000;2022-09-01T05:13:09;3.90;;;1.10;;
10805;SDS011;5455;53.224;6.000;2022-09-01T05:15:38;2.03;;;1.30;;
10805;SDS011;5455;53.224;6.000;2022-09-01T05:18:16;1.10;;;0.97;;
10805;SDS011;5455;53.224;6.000;2022-09-01T05:20:50;2.77;;;1.30;;
10805;SDS011;5455;53.224;6.000;2022-09-01T05:23:18;2.00;;;1.07;;
10805;SDS011;5455;53.224;6.000;2022-09-01T05:25:47;2.20;;;1.40;;
10805;SDS011;5455;53.224;6.000;2022-09-01T05:28:18;1.27;;;1.10;;
10805;SDS011;5455;53.224;6.000;2022-09-01T05:30:46;4.20;;;1.40;;
10805;SDS011;5455;53.224;6.000;2022-09-01T05:33:14;2.20;;;1.10;;
10805;SDS011;5455;53.224;6.000;2022-09-01T05:35:55;3.40;;;1.30;;
10805;SDS011;5455;53.224;6.000;2022-09-01T05:38:26;1.33;;;1.23;;
10805;SDS011;5455;53.224;6.000;2022-09-01T05:40:58;1.40;;;1.10;;
10805;SDS011;5455;53.224;6.000;2022-09-01T05:43:32;1.80;;;1.30;;
10805;SDS011;5455;53.224;6.000;2022-09-01T05:46:01;1.40;;;1.10;;
10805;SDS011;5455;53.224;6.000;2022-09-01T05:48:35;1.83;;;1.30;;
10805;SDS011;5455;53.224;6.000;2022-09-01T05:51:06;1.67;;;1.20;;
10805;SDS011;5455;53.224;6.000;2022-09-01T05:53:55;1.63;;;1.30;;
10805;SDS011;5455;53.224;6.000;2022-09-01T05:56:28;1.10;;;1.00;;
10805;SDS011;5455;53.224;6.000;2022-09-01T05:58:58;1.47;;;1.20;;
10805;SDS011;5455;53.224;6.000;2022-09-01T06:01:47;3.27;;;1.40;;
10805;SDS011;5455;53.224;6.000;2022-09-01T06:04:16;1.73;;;1.00;;
10805;SDS011;5455;53.224;6.000;2022-09-01T06:06:46;1.83;;;1.10;;
10805;SDS011;5455;53.224;6.000;2022-09-01T06:09:36;4.17;;;1.40;;
10805;SDS011;5455;53.224;6.000;2022-09-01T06:12:04;2.13;;;1.33;;
10805;SDS011;5455;53.224;6.000;2022-09-01T06:14:32;1.67;;;1.30;;
10805;SDS011;5455;53.224;6.000;2022-09-01T06:17:00;2.03;;;1.30;;
10805;SDS011;5455;53.224;6.000;2022-09-01T06:19:29;4.20;;;1.30;;
10805;SDS011;5455;53.224;6.000;2022-09-01T06:22:03;1.13;;;1.03;;
10805;SDS011;5455;53.224;6.000;2022-09-01T06:24:30;1.30;;;1.20;;
10805;SDS011;5455;53.224;6.000;2022-09-01T06:26:57;1.97;;;1.30;;
10805;SDS011;5455;53.224;6.000;2022-09-01T06:29:25;1.33;;;1.20;;
10805;SDS011;5455;53.224;6.000;2022-09-01T06:31:53;2.30;;;1.23;;
10805;SDS011;5455;53.224;6.000;2022-09-01T06:34:19;2.53;;;1.60;;
10805;SDS011;5455;53.224;6.000;2022-09-01T06:36:47;3.57;;;1.00;;
10805;SDS011;5455;53.224;6.000;2022-09-01T06:39:19;1.40;;;1.23;;
10805;SDS011;5455;53.224;6.000;2022-09-01T06:41:51;2.63;;;1.10;;
10805;SDS011;5455;53.224;6.000;2022-09-01T06:44:23;1.67;;;1.20;;
10805;SDS011;5455;53.224;6.000;2022-09-01T06:47:01;1.53;;;1.00;;
10805;SDS011;5455;53.224;6.000;2022-09-01T06:49:28;1.13;;;0.93;;
10805;SDS011;5455;53.224;6.000;2022-09-01T06:51:59;1.57;;;1.20;;
10805;SDS011;5455;53.224;6.000;2022-09-01T06:54:29;1.43;;;1.20;;
10805;SDS011;5455;53.224;6.000;2022-09-01T06:57:01;1.87;;;1.10;;
10805;SDS011;5455;53.224;6.000;2022-09-01T06:59:49;1.40;;;1.23;;
10805;SDS011;5455;53.224;6.000;2022-09-01T07:02:20;2.47;;;1.20;;
10805;SDS011;5455;53.224;6.000;2022-09-01T07:05:16;1.23;;;1.10;;
10805;SDS011;5455;53.224;6.000;2022-09-01T07:08:05;1.57;;;1.17;;
10805;SDS011;5455;53.224;6.000;2022-09-01T07:10:41;3.27;;;1.30;;
10805;SDS011;5455;53.224;6.000;2022-09-01T07:13:30;2.23;;;1.10;;
10805;SDS011;5455;53.224;6.000;2022-09-01T07:16:00;2.47;;;1.43;;
10805;SDS011;5455;53.224;6.000;2022-09-01T07:18:50;1.47;;;1.33;;
10805;SDS011;5455;53.224;6.000;2022-09-01T07:21:27;1.23;;;1.13;;
10805;SDS011;5455;53.224;6.000;2022-09-01T07:24:19;1.80;;;1.33;;
10805;SDS011;5455;53.224;6.000;2022-09-01T07:27:09;1.27;;;1.17;;
10805;SDS011;5455;53.224;6.000;2022-09-01T07:29:37;1.87;;;1.40;;
10805;SDS011;5455;53.224;6.000;2022-09-01T07:32:07;1.43;;;1.20;;
10805;SDS011;5455;53.224;6.000;2022-09-01T07:34:56;4.53;;;1.40;;
10805;SDS011;5455;53.224;6.000;2022-09-01T07:37:27;1.50;;;1.40;;
10805;SDS011;5455;53.224;6.000;2022-09-01T07:40:14;2.23;;;1.40;;
10805;SDS011;5455;53.224;6.000;2022-09-01T07:43:05;4.33;;;1.60;;
10805;SDS011;5455;53.224;6.000;2022-09-01T07:46:13;3.10;;;1.40;;
10805;SDS011;5455;53.224;6.000;2022-09-01T07:49:01;1.40;;;1.30;;
10805;SDS011;5455;53.224;6.000;2022-09-01T07:51:50;1.87;;;1.40;;
10805;SDS011;5455;53.224;6.000;2022-09-01T07:54:18;1.67;;;1.53;;
10805;SDS011;5455;53.224;6.000;2022-09-01T07:56:50;2.57;;;1.23;;
10805;SDS011;5455;53.224;6.000;2022-09-01T07:59:22;3.17;;;1.50;;
10805;SDS011;5455;53.224;6.000;2022-09-01T08:01:59;3.13;;;1.30;;
10805;SDS011;5455;53.224;6.000;2022-09-01T08:04:32;4.20;;;1.50;;
10805;SDS011;5455;53.224;6.000;2022-09-01T08:07:00;2.90;;;1.33;;
10805;SDS011;5455;53.224;6.000;2022-09-01T08:09:27;1.63;;;1.23;;
10805;SDS011;5455;53.224;6.000;2022-09-01T08:12:06;2.60;;;1.10;;
10805;SDS011;5455;53.224;6.000;2022-09-01T08:14:45;1.40;;;1.30;;
10805;SDS011;5455;53.224;6.000;2022-09-01T08:17:12;3.60;;;1.30;;
10805;SDS011;5455;53.224;6.000;2022-09-01T08:20:02;1.20;;;1.10;;
10805;SDS011;5455;53.224;6.000;2022-09-01T08:22:55;2.27;;;1.37;;
10805;SDS011;5455;53.224;6.000;2022-09-01T08:25:25;1.90;;;1.50;;
10805;SDS011;5455;53.224;6.000;2022-09-01T08:27:53;2.80;;;1.47;;
10805;SDS011;5455;53.224;6.000;2022-09-01T08:30:28;3.67;;;1.53;;
10805;SDS011;5455;53.224;6.000;2022-09-01T08:32:59;1.50;;;1.20;;
10805;SDS011;5455;53.224;6.000;2022-09-01T08:35:38;2.77;;;1.20;;
10805;SDS011;5455;53.224;6.000;2022-09-01T08:38:07;2.73;;;1.47;;
10805;SDS011;5455;53.224;6.000;2022-09-01T08:40:35;2.37;;;1.43;;
10805;SDS011;5455;53.224;6.000;2022-09-01T08:45:48;6.23;;;1.17;;
10805;SDS011;5455;53.224;6.000;2022-09-01T08:48:42;2.20;;;1.10;;
10805;SDS011;5455;53.224;6.000;2022-09-01T08:54:41;2.40;;;1.27;;
10805;SDS011;5455;53.224;6.000;2022-09-01T08:57:15;2.77;;;1.77;;
10805;SDS011;5455;53.224;6.000;2022-09-01T09:00:04;1.83;;;1.50;;
10805;SDS011;5455;53.224;6.000;2022-09-01T09:05:24;3.03;;;1.80;;
10805;SDS011;5455;53.224;6.000;2022-09-01T09:14:29;1.47;;;1.20;;
10805;SDS011;5455;53.224;6.000;2022-09-01T09:16:48;2.13;;;1.20;;
10805;SDS011;5455;53.224;6.000;2022-09-01T09:19:30;2.17;;;0.90;;
10805;SDS011;5455;53.224;6.000;2022-09-01T09:22:01;3.33;;;1.27;;
10805;SDS011;5455;53.224;6.000;2022-09-01T09:24:33;1.80;;;1.00;;
10805;SDS011;5455;53.224;6.000;2022-09-01T09:27:18;1.90;;;1.03;;
10805;SDS011;5455;53.224;6.000;2022-09-01T09:29:50;1.90;;;1.23;;
10805;SDS011;5455;53.224;6.000;2022-09-01T09:32:19;2.63;;;1.63;;
10805;SDS011;5455;53.224;6.000;2022-09-01T09:34:53;1.30;;;1.10;;
10805;SDS011;5455;53.224;6.000;2022-09-01T09:37:28;2.07;;;1.40;;
10805;SDS011;5455;53.224;6.000;2022-09-01T09:40:00;2.80;;;1.07;;
10805;SDS011;5455;53.224;6.000;2022-09-01T09:42:28;2.40;;;1.10;;
10805;SDS011;5455;53.224;6.000;2022-09-01T09:45:01;1.80;;;0.83;;
10805;SDS011;5455;53.224;6.000;2022-09-01T09:47:39;2.30;;;1.30;;
10805;SDS011;5455;53.224;6.000;2022-09-01T09:50:12;1.77;;;0.90;;
10805;SDS011;5455;53.224;6.000;2022-09-01T09:52:50;2.07;;;1.30;;
10805;SDS011;5455;53.224;6.000;2022-09-01T09:57:52;1.73;;;1.30;;
10805;SDS011;5455;53.224;6.000;2022-09-01T10:03:04;2.03;;;1.20;;
10805;SDS011;5455;53.224;6.000;2022-09-01T10:05:41;1.50;;;0.67;;
10805;SDS011;5455;53.224;6.000;2022-09-01T10:08:35;1.43;;;1.10;;
10805;SDS011;5455;53.224;6.000;2022-09-01T10:11:25;0.70;;;0.70;;
10805;SDS011;5455;53.224;6.000;2022-09-01T10:17:15;1.67;;;0.70;;
10805;SDS011;5455;53.224;6.000;2022-09-01T10:19:56;1.50;;;0.77;;
10805;SDS011;5455;53.224;6.000;2022-09-01T10:22:32;1.87;;;1.00;;
10805;SDS011;5455;53.224;6.000;2022-09-01T10:25:03;3.03;;;0.90;;
10805;SDS011;5455;53.224;6.000;2022-09-01T10:27:35;1.90;;;0.90;;
10805;SDS011;5455;53.224;6.000;2022-09-01T10:32:49;0.80;;;0.73;;
10805;SDS011;5455;53.224;6.000;2022-09-01T10:35:27;1.23;;;1.00;;
10805;SDS011;5455;53.224;6.000;2022-09-01T10:37:57;0.93;;;0.80;;
10805;SDS011;5455;53.224;6.000;2022-09-01T10:43:21;1.30;;;0.90;;
10805;SDS011;5455;53.224;6.000;2022-09-01T10:45:52;1.50;;;1.00;;
10805;SDS011;5455;53.224;6.000;2022-09-01T10:48:31;0.97;;;0.80;;
10805;SDS011;5455;53.224;6.000;2022-09-01T10:56:20;1.03;;;0.87;;
10805;SDS011;5455;53.224;6.000;2022-09-01T11:07:49;1.27;;;0.93;;
10805;SDS011;5455;53.224;6.000;2022-09-01T11:15:33;1.00;;;0.57;;
10805;SDS011;5455;53.224;6.000;2022-09-01T11:18:01;0.90;;;0.50;;
10805;SDS011;5455;53.224;6.000;2022-09-01T11:20:40;0.70;;;0.50;;
10805;SDS011;5455;53.224;6.000;2022-09-01T11:25:44;0.67;;;0.60;;
10805;SDS011;5455;53.224;6.000;2022-09-01T11:28:35;0.37;;;0.27;;
10805;SDS011;5455;53.224;6.000;2022-09-01T11:39:17;1.23;;;0.33;;
10805;SDS011;5455;53.224;6.000;2022-09-01T11:47:42;0.50;;;0.47;;
10805;SDS011;5455;53.224;6.000;2022-09-01T11:52:41;1.27;;;0.47;;
10805;SDS011;5455;53.224;6.000;2022-09-01T11:55:28;0.87;;;0.60;;
10805;SDS011;5455;53.224;6.000;2022-09-01T11:57:57;0.70;;;0.57;;
10805;SDS011;5455;53.224;6.000;2022-09-01T12:00:26;0.73;;;0.47;;
10805;SDS011;5455;53.224;6.000;2022-09-01T12:02:56;0.70;;;0.40;;
10805;SDS011;5455;53.224;6.000;2022-09-01T12:05:27;0.33;;;0.33;;
10805;SDS011;5455;53.224;6.000;2022-09-01T12:07:57;0.77;;;0.30;;
10805;SDS011;5455;53.224;6.000;2022-09-01T12:13:06;1.27;;;0.63;;
10805;SDS011;5455;53.224;6.000;2022-09-01T12:15:36;1.63;;;0.70;;
10805;SDS011;5455;53.224;6.000;2022-09-01T12:18:32;0.93;;;0.30;;
10805;SDS011;5455;53.224;6.000;2022-09-01T12:21:02;0.37;;;0.30;;
10805;SDS011;5455;53.224;6.000;2022-09-01T12:23:38;1.33;;;0.40;;
10805;SDS011;5455;53.224;6.000;2022-09-01T12:26:19;1.10;;;0.43;;
10805;SDS011;5455;53.224;6.000;2022-09-01T12:28:50;0.57;;;0.30;;
10805;SDS011;5455;53.224;6.000;2022-09-01T12:31:19;0.70;;;0.50;;
10805;SDS011;5455;53.224;6.000;2022-09-01T12:33:50;0.60;;;0.40;;
10805;SDS011;5455;53.224;6.000;2022-09-01T12:36:29;2.47;;;0.30;;
10805;SDS011;5455;53.224;6.000;2022-09-01T12:39:19;0.87;;;0.30;;
10805;SDS011;5455;53.224;6.000;2022-09-01T12:44:41;1.50;;;0.60;;
10805;SDS011;5455;53.224;6.000;2022-09-01T12:47:58;1.57;;;0.50;;
10805;SDS011;5455;53.224;6.000;2022-09-01T12:50:00;1.20;;;0.27;;
10805;SDS011;5455;53.224;6.000;2022-09-01T12:52:29;0.37;;;0.30;;
10805;SDS011;5455;53.224;6.000;2022-09-01T12:57:34;0.67;;;0.50;;
10805;SDS011;5455;53.224;6.000;2022-09-01T13:00:17;2.10;;;0.40;;
10805;SDS011;5455;53.224;6.000;2022-09-01T13:05:34;1.33;;;0.50;;
10805;SDS011;5455;53.224;6.000;2022-09-01T13:08:08;1.00;;;0.63;;
10805;SDS011;5455;53.224;6.000;2022-09-01T13:10:41;0.43;;;0.40;;
10805;SDS011;5455;53.224;6.000;2022-09-01T13:13:11;2.57;;;0.60;;
10805;SDS011;5455;53.224;6.000;2022-09-01T13:15:40;1.27;;;0.53;;
10805;SDS011;5455;53.224;6.000;2022-09-01T13:18:09;0.97;;;0.50;;
10805;SDS011;5455;53.224;6.000;2022-09-01T13:20:37;1.60;;;0.60;;
10805;SDS011;5455;53.224;6.000;2022-09-01T13:23:03;0.93;;;0.30;;
10805;SDS011;5455;53.224;6.000;2022-09-01T13:25:31;0.33;;;0.27;;
10805;SDS011;5455;53.224;6.000;2022-09-01T13:27:58;1.03;;;0.40;;
10805;SDS011;5455;53.224;6.000;2022-09-01T13:30:28;1.67;;;0.40;;
10805;SDS011;5455;53.224;6.000;2022-09-01T13:32:55;5.20;;;0.30;;
10805;SDS011;5455;53.224;6.000;2022-09-01T13:35:43;1.30;;;0.40;;
10805;SDS011;5455;53.224;6.000;2022-09-01T13:38:10;1.40;;;0.67;;
10805;SDS011;5455;53.224;6.000;2022-09-01T13:40:37;1.47;;;0.50;;
10805;SDS011;5455;53.224;6.000;2022-09-01T13:43:04;0.90;;;0.50;;
10805;SDS011;5455;53.224;6.000;2022-09-01T13:45:31;0.50;;;0.50;;
10805;SDS011;5455;53.224;6.000;2022-09-01T13:47:59;0.50;;;0.40;;
10805;SDS011;5455;53.224;6.000;2022-09-01T13:50:46;1.87;;;0.50;;
10805;SDS011;5455;53.224;6.000;2022-09-01T13:53:41;1.13;;;0.80;;
10805;SDS011;5455;53.224;6.000;2022-09-01T13:56:07;1.43;;;0.40;;
10805;SDS011;5455;53.224;6.000;2022-09-01T13:58:34;3.03;;;0.57;;
10805;SDS011;5455;53.224;6.000;2022-09-01T14:01:02;1.23;;;0.70;;
10805;SDS011;5455;53.224;6.000;2022-09-01T14:03:30;0.47;;;0.40;;
10805;SDS011;5455;53.224;6.000;2022-09-01T14:05:57;0.70;;;0.43;;
10805;SDS011;5455;53.224;6.000;2022-09-01T14:08:24;0.80;;;0.70;;
10805;SDS011;5455;53.224;6.000;2022-09-01T14:10:52;1.70;;;0.70;;
10805;SDS011;5455;53.224;6.000;2022-09-01T14:13:20;1.53;;;0.40;;
10805;SDS011;5455;53.224;6.000;2022-09-01T14:15:48;0.30;;;0.30;;
10805;SDS011;5455;53.224;6.000;2022-09-01T14:18:15;2.67;;;0.40;;
10805;SDS011;5455;53.224;6.000;2022-09-01T14:20:44;2.40;;;0.70;;
10805;SDS011;5455;53.224;6.000;2022-09-01T14:23:13;1.03;;;0.33;;
10805;SDS011;5455;53.224;6.000;2022-09-01T14:25:44;2.93;;;0.60;;
10805;SDS011;5455;53.224;6.000;2022-09-01T14:28:15;1.27;;;0.60;;
10805;SDS011;5455;53.224;6.000;2022-09-01T14:30:46;0.83;;;0.40;;
10805;SDS011;5455;53.224;6.000;2022-09-01T14:33:14;0.53;;;0.30;;
10805;SDS011;5455;53.224;6.000;2022-09-01T14:35:43;6.67;;;2.10;;
10805;SDS011;5455;53.224;6.000;2022-09-01T14:38:12;0.57;;;0.30;;
10805;SDS011;5455;53.224;6.000;2022-09-01T14:40:40;0.57;;;0.40;;
10805;SDS011;5455;53.224;6.000;2022-09-01T14:43:09;0.90;;;0.50;;
10805;SDS011;5455;53.224;6.000;2022-09-01T14:45:40;3.87;;;0.67;;
10805;SDS011;5455;53.224;6.000;2022-09-01T14:48:16;0.80;;;0.40;;
10805;SDS011;5455;53.224;6.000;2022-09-01T14:50:46;0.70;;;0.47;;
10805;SDS011;5455;53.224;6.000;2022-09-01T14:53:14;0.57;;;0.40;;
10805;SDS011;5455;53.224;6.000;2022-09-01T14:55:41;3.70;;;0.40;;
10805;SDS011;5455;53.224;6.000;2022-09-01T14:58:09;2.40;;;0.50;;
10805;SDS011;5455;53.224;6.000;2022-09-01T15:00:36;1.90;;;0.67;;
10805;SDS011;5455;53.224;6.000;2022-09-01T15:03:04;2.30;;;0.37;;
10805;SDS011;5455;53.224;6.000;2022-09-01T15:05:32;1.20;;;0.63;;
10805;SDS011;5455;53.224;6.000;2022-09-01T15:08:06;4.20;;;0.40;;
10805;SDS011;5455;53.224;6.000;2022-09-01T15:10:36;3.37;;;0.47;;
10805;SDS011;5455;53.224;6.000;2022-09-01T15:13:03;2.37;;;0.60;;
10805;SDS011;5455;53.224;6.000;2022-09-01T15:15:30;2.10;;;0.43;;
10805;SDS011;5455;53.224;6.000;2022-09-01T15:17:58;0.50;;;0.40;;
10805;SDS011;5455;53.224;6.000;2022-09-01T15:20:26;2.03;;;0.40;;
10805;SDS011;5455;53.224;6.000;2022-09-01T15:23:13;2.03;;;0.50;;
10805;SDS011;5455;53.224;6.000;2022-09-01T15:25:41;0.93;;;0.40;;
10805;SDS011;5455;53.224;6.000;2022-09-01T15:28:08;1.17;;;0.30;;
10805;SDS011;5455;53.224;6.000;2022-09-01T15:30:36;2.47;;;0.30;;
10805;SDS011;5455;53.224;6.000;2022-09-01T15:33:05;0.87;;;0.50;;
10805;SDS011;5455;53.224;6.000;2022-09-01T15:35:40;0.97;;;0.60;;
10805;SDS011;5455;53.224;6.000;2022-09-01T15:38:08;2.40;;;0.50;;
10805;SDS011;5455;53.224;6.000;2022-09-01T15:40:39;0.53;;;0.40;;
10805;SDS011;5455;53.224;6.000;2022-09-01T15:43:08;1.03;;;0.30;;
10805;SDS011;5455;53.224;6.000;2022-09-01T15:45:35;0.80;;;0.70;;
10805;SDS011;5455;53.224;6.000;2022-09-01T15:48:02;1.97;;;0.33;;
10805;SDS011;5455;53.224;6.000;2022-09-01T15:50:29;0.53;;;0.40;;
10805;SDS011;5455;53.224;6.000;2022-09-01T15:52:57;1.57;;;0.40;;
10805;SDS011;5455;53.224;6.000;2022-09-01T15:55:37;1.60;;;0.40;;
10805;SDS011;5455;53.224;6.000;2022-09-01T15:58:13;0.30;;;0.27;;
10805;SDS011;5455;53.224;6.000;2022-09-01T16:00:42;0.90;;;0.37;;
10805;SDS011;5455;53.224;6.000;2022-09-01T16:03:10;1.40;;;0.60;;
10805;SDS011;5455;53.224;6.000;2022-09-01T16:05:37;4.40;;;0.50;;
10805;SDS011;5455;53.224;6.000;2022-09-01T16:08:05;0.40;;;0.40;;
10805;SDS011;5455;53.224;6.000;2022-09-01T16:10:38;1.87;;;0.90;;
10805;SDS011;5455;53.224;6.000;2022-09-01T16:13:07;1.03;;;0.40;;
10805;SDS011;5455;53.224;6.000;2022-09-01T16:15:39;2.57;;;0.57;;
10805;SDS011;5455;53.224;6.000;2022-09-01T16:21:24;1.30;;;0.50;;
10805;SDS011;5455;53.224;6.000;2022-09-01T16:23:50;0.83;;;0.50;;
10805;SDS011;5455;53.224;6.000;2022-09-01T16:26:19;1.90;;;0.37;;
10805;SDS011;5455;53.224;6.000;2022-09-01T16:28:49;2.60;;;0.50;;
10805;SDS011;5455;53.224;6.000;2022-09-01T16:31:28;1.27;;;0.47;;
10805;SDS011;5455;53.224;6.000;2022-09-01T16:33:58;0.60;;;0.40;;
10805;SDS011;5455;53.224;6.000;2022-09-01T16:39:02;0.83;;;0.50;;
10805;SDS011;5455;53.224;6.000;2022-09-01T16:52:48;1.73;;;0.60;;
10805;SDS011;5455;53.224;6.000;2022-09-01T16:55:54;2.40;;;0.50;;
10805;SDS011;5455;53.224;6.000;2022-09-01T17:06:30;1.40;;;0.40;;
10805;SDS011;5455;53.224;6.000;2022-09-01T17:11:51;1.43;;;0.50;;
10805;SDS011;5455;53.224;6.000;2022-09-01T17:14:30;2.93;;;0.40;;
10805;SDS011;5455;53.224;6.000;2022-09-01T17:17:09;1.83;;;0.60;;
10805;SDS011;5455;53.224;6.000;2022-09-01T17:19:40;0.43;;;0.43;;
10805;SDS011;5455;53.224;6.000;2022-09-01T17:22:09;2.93;;;0.60;;
10805;SDS011;5455;53.224;6.000;2022-09-01T17:24:39;1.20;;;0.40;;
10805;SDS011;5455;53.224;6.000;2022-09-01T17:29:49;2.30;;;0.40;;
10805;SDS011;5455;53.224;6.000;2022-09-01T17:46:25;1.07;;;0.50;;